KBTL/BTL METAR and TAF weather

Enter ICAO airport designator
Station Type Date Time Source
KBTL METAR 2018/10/22 16:53 UTC NOAA

KBTL 221653Z 21005KT 10SM CLR 06/00 A3006 RMK AO2 SLPNO T00610000 $


Station Type Date Time Source
KBTL Decoded METAR 2018/10/22 16:53 UTC NOAA

W.K.KELLOGG REGIONAL AIRPORT, MI, United States (KBTL) 42-18N 085-15W 290M
Oct 22, 2018 - 12:53 PM EDT / 2018.10.22 1653 UTC
Wind: from the SSW (210 degrees) at 6 MPH (5 KT):0
Visibility: 10 mile(s):0
Sky conditions: clear
Temperature: 43.0 F (6.1 C)
Dew Point: 32.0 F (0.0 C)
Relative Humidity: 64%
Pressure (altimeter): 30.06 in. Hg (1017 hPa)
ob: KBTL 221653Z 21005KT 10SM CLR 06/00 A3006 RMK AO2 SLPNO T00610000
cycle: 17

Station Type Date Time Source
KBTL TAF 2018/10/22 12:33 UTC NOAA

KBTL 221130Z 2212/2312 23007KT P6SM FEW250
FM230900 30007KT P6SM FEW090


Example: see airport list